Time;durP1;ratioP1;P1;durP2;ratioP2;P2;SDS_P1;SDS_P2;PMS_P1;PMS_P2;Temp;Humidity;BMP_temperature;BMP_pressure;BME280_temperature;BME280_humidity;BME280_pressure;Samples;Min_cycle;Max_cycle;Signal;HPM_P1;HPM_P2
2023/01/16 00:01:24;;;;;;;5.40;4.78;;;;;;;;;;4938159;28;20051;-90
2023/01/16 00:03:50;;;;;;;5.70;3.63;;;;;;;;;;4937599;28;20059;-91
2023/01/16 00:06:17;;;;;;;7.88;3.50;;;;;;;;;;4921957;29;20098;-90
2023/01/16 00:08:44;;;;;;;3.47;3.17;;;;;;;;;;4937728;29;20051;-90
2023/01/16 00:11:10;;;;;;;5.80;3.28;;;;;;;;;;4922431;29;20059;-89
2023/01/16 00:13:37;;;;;;;6.50;3.65;;;;;;;;;;4922327;28;20059;-94
2023/01/16 00:16:03;;;;;;;5.05;3.58;;;;;;;;;;4937945;29;20134;-92
2023/01/16 00:18:29;;;;;;;8.73;2.90;;;;;;;;;;4922157;28;20581;-92
2023/01/16 00:20:55;;;;;;;3.78;2.90;;;;;;;;;;4937787;29;20057;-95
2023/01/16 00:23:21;;;;;;;4.63;3.15;;;;;;;;;;4937892;28;20051;-91
2023/01/16 00:25:47;;;;;;;5.03;3.45;;;;;;;;;;4938113;29;20043;-93
2023/01/16 00:28:16;;;;;;;4.80;3.65;;;;;;;;;;4941031;29;20050;-91
2023/01/16 00:30:42;;;;;;;4.22;3.10;;;;;;;;;;4925641;29;20142;-90
2023/01/16 00:33:08;;;;;;;9.55;3.38;;;;;;;;;;4924776;29;20047;-90
2023/01/16 00:35:35;;;;;;;8.57;3.72;;;;;;;;;;4925803;28;20043;-89
2023/01/16 00:38:01;;;;;;;4.43;3.40;;;;;;;;;;4924889;28;20039;-89
2023/01/16 00:40:27;;;;;;;3.80;3.30;;;;;;;;;;4940715;28;20054;-89
2023/01/16 00:42:53;;;;;;;5.53;3.55;;;;;;;;;;4925022;28;20078;-89
2023/01/16 00:45:19;;;;;;;7.38;4.20;;;;;;;;;;4924502;28;20054;-88
2023/01/16 00:47:46;;;;;;;8.73;4.45;;;;;;;;;;4940242;28;20496;-89
2023/01/16 00:50:12;;;;;;;8.13;4.40;;;;;;;;;;4924326;29;20047;-89
2023/01/16 00:52:38;;;;;;;6.10;3.78;;;;;;;;;;4940474;28;20054;-89
2023/01/16 00:55:04;;;;;;;8.23;5.60;;;;;;;;;;4940258;29;20134;-88
2023/01/16 00:57:30;;;;;;;7.97;4.45;;;;;;;;;;4940435;29;20047;-90
2023/01/16 00:59:56;;;;;;;7.22;4.60;;;;;;;;;;4941090;29;20111;-93
2023/01/16 01:02:22;;;;;;;10.00;5.03;;;;;;;;;;4940541;28;20078;-90
2023/01/16 01:04:48;;;;;;;9.05;4.15;;;;;;;;;;4924788;29;20058;-91
2023/01/16 01:07:14;;;;;;;6.40;4.22;;;;;;;;;;4940634;29;20520;-92
2023/01/16 01:09:40;;;;;;;6.38;4.05;;;;;;;;;;4924689;29;20444;-89
2023/01/16 01:12:06;;;;;;;7.93;4.32;;;;;;;;;;4925372;28;20054;-90
2023/01/16 01:14:32;;;;;;;7.22;3.67;;;;;;;;;;4940156;28;20039;-89
2023/01/16 01:16:59;;;;;;;7.80;4.53;;;;;;;;;;4940202;29;20049;-91
2023/01/16 01:19:25;;;;;;;7.32;4.05;;;;;;;;;;4940136;29;20133;-90
2023/01/16 01:21:51;;;;;;;9.38;3.75;;;;;;;;;;4940461;29;20085;-90
2023/01/16 01:24:17;;;;;;;5.78;3.92;;;;;;;;;;4924371;29;20043;-90
2023/01/16 01:26:43;;;;;;;5.65;3.65;;;;;;;;;;4924249;28;20528;-90
2023/01/16 01:29:09;;;;;;;6.40;3.20;;;;;;;;;;4939769;29;20047;-92
2023/01/16 01:31:36;;;;;;;8.18;3.70;;;;;;;;;;4924466;29;20094;-92
2023/01/16 01:34:02;;;;;;;10.60;3.50;;;;;;;;;;4924480;29;20054;-91
2023/01/16 01:36:28;;;;;;;6.35;3.38;;;;;;;;;;4940179;29;20047;-91
2023/01/16 01:38:54;;;;;;;6.28;4.13;;;;;;;;;;4922854;28;20094;-92
2023/01/16 01:41:20;;;;;;;3.53;3.10;;;;;;;;;;4939698;28;20078;-90
2023/01/16 01:43:48;;;;;;;7.50;3.35;;;;;;;;;;4939572;29;20086;-90
2023/01/16 01:46:19;;;;;;;4.57;3.45;;;;;;;;;;4923799;29;20055;-90
2023/01/16 01:48:45;;;;;;;5.00;3.40;;;;;;;;;;4923438;29;20101;-89
2023/01/16 01:51:16;;;;;;;7.60;3.42;;;;;;;;;;4923434;29;20043;-91
2023/01/16 01:54:03;;;;;;;6.60;2.83;;;;;;;;;;4923525;29;20074;-89
2023/01/16 01:56:34;;;;;;;11.18;3.63;;;;;;;;;;4939495;29;20043;-89
2023/01/16 01:59:02;;;;;;;5.88;3.42;;;;;;;;;;4938955;29;20050;-89
2023/01/16 02:01:30;;;;;;;4.40;2.97;;;;;;;;;;4923499;29;20051;-89
2023/01/16 02:04:01;;;;;;;4.65;3.08;;;;;;;;;;4923681;28;20051;-91
2023/01/16 02:06:42;;;;;;;4.55;3.40;;;;;;;;;;4923457;28;20059;-90
2023/01/16 02:09:08;;;;;;;8.18;3.50;;;;;;;;;;4923373;29;20426;-94
2023/01/16 02:11:38;;;;;;;5.28;3.15;;;;;;;;;;4939336;29;20058;-90
2023/01/16 02:14:15;;;;;;;7.28;3.55;;;;;;;;;;4923726;29;20043;-90
2023/01/16 02:19:25;;;;;;;5.25;3.33;;;;;;;;;;4939535;28;20043;-91
2023/01/16 02:22:05;;;;;;;4.97;3.03;;;;;;;;;;4923672;28;20051;-91
2023/01/16 02:24:37;;;;;;;6.00;2.60;;;;;;;;;;4924126;29;20365;-92
2023/01/16 02:27:31;;;;;;;11.85;3.10;;;;;;;;;;4939197;29;20078;-90
2023/01/16 02:30:06;;;;;;;;;;;4.20;99.90;;;;;;4939358;29;20103;-90
2023/01/16 02:32:45;;;;;;;4.45;3.38;;;;;;;;;;4938994;29;20335;-90
2023/01/16 02:35:14;;;;;;;5.07;2.75;;;;;;;;;;4923257;29;20043;-92
2023/01/16 02:37:49;;;;;;;10.93;3.85;;;;;;;;;;4940107;28;20389;-91
2023/01/16 02:40:28;;;;;;;8.57;3.13;;;;;;;;;;4923213;29;20066;-91
2023/01/16 02:43:03;;;;;;;6.82;3.00;;;;;;;;;;4922997;28;20051;-90
2023/01/16 02:45:39;;;;;;;8.35;3.60;;;;;;;;;;4938876;28;20047;-90
2023/01/16 02:48:09;;;;;;;5.22;3.00;;;;;;;;;;4923269;28;20085;-90
2023/01/16 02:50:56;;;;;;;8.20;3.15;;;4.20;99.90;;;;;;4922806;28;20050;-89
2023/01/16 02:53:30;;;;;;;5.20;3.13;;;;;;;;;;4938729;28;20051;-89
2023/01/16 02:56:02;;;;;;;7.47;3.55;;;;;;;;;;4922692;28;20439;-89
2023/01/16 02:58:29;;;;;;;4.68;3.35;;;;;;;;;;4922298;29;20043;-91
2023/01/16 03:00:56;;;;;;;13.32;3.28;;;;;;;;;;4922500;28;20051;-91
2023/01/16 03:03:42;;;;;;;15.52;3.47;;;;;;;;;;4922358;29;20059;-89
2023/01/16 03:06:21;;;;;;;8.80;3.83;;;;;;;;;;4922163;29;20054;-89
2023/01/16 03:08:59;;;;;;;6.63;3.33;;;;;;;;;;4923352;28;20109;-91
2023/01/16 03:11:26;;;;;;;5.97;3.33;;;;;;;;;;4922812;29;20106;-90
2023/01/16 03:14:02;;;;;;;6.53;3.67;;;;;;;;;;4923030;29;20043;-91
2023/01/16 03:16:37;;;;;;;11.43;3.50;;;;;;;;;;4922672;29;20054;-93
2023/01/16 03:19:10;;;;;;;5.57;3.08;;;;;;;;;;4922766;28;20051;-92
2023/01/16 03:21:39;;;;;;;4.10;3.33;;;;;;;;;;4922922;28;20069;-92
2023/01/16 03:24:12;;;;;;;6.10;3.40;;;;;;;;;;4922657;28;20051;-93
2023/01/16 03:26:49;;;;;;;14.63;4.78;;;;;;;;;;4922883;29;20051;-93
2023/01/16 03:29:15;;;;;;;10.52;4.30;;;;;;;;;;4922564;28;20051;-92
2023/01/16 03:31:42;;;;;;;7.25;3.67;;;;;;;;;;4938477;29;20086;-93
2023/01/16 03:34:14;;;;;;;6.32;3.13;;;;;;;;;;4922978;28;20046;-93
2023/01/16 03:36:48;;;;;;;5.97;3.35;;;;;;;;;;4922430;29;20186;-92
2023/01/16 03:39:16;;;;;;;8.65;3.55;;;;;;;;;;4922636;28;20047;-92
2023/01/16 03:41:44;;;;;;;7.38;3.60;;;;;;;;;;4922514;29;20047;-92
2023/01/16 03:44:14;;;;;;;5.53;4.38;;;;;;;;;;4922163;28;20043;-92
2023/01/16 03:46:44;;;;;;;6.68;3.22;;;;;;;;;;4922063;28;20155;-91
2023/01/16 03:49:13;;;;;;;7.32;3.85;;;;;;;;;;4922018;29;20412;-90
2023/01/16 03:51:42;;;;;;;8.80;4.10;;;;;;;;;;4937764;29;20087;-90
2023/01/16 03:54:17;;;;;;;5.57;3.53;;;;;;;;;;4922012;28;20044;-90
2023/01/16 03:56:52;;;;;;;9.93;3.53;;;;;;;;;;4921602;29;20125;-90
2023/01/16 03:59:18;;;;;;;8.07;4.07;;;;;;;;;;4921718;28;20051;-89
2023/01/16 04:01:55;;;;;;;11.70;3.80;;;;;;;;;;4923599;28;20452;-89
2023/01/16 04:04:26;;;;;;;5.03;3.65;;;;;;;;;;4925383;28;20066;-90
2023/01/16 04:06:59;;;;;;;3.78;3.35;;;;;;;;;;4925677;29;20051;-89
2023/01/16 04:09:32;;;;;;;5.18;3.67;;;;;;;;;;4925477;29;20051;-91
2023/01/16 04:11:59;;;;;;;7.30;4.17;;;;;;;;;;4925643;28;20456;-92
2023/01/16 04:14:26;;;;;;;6.30;3.97;;;;;;;;;;4941421;29;20047;-89
2023/01/16 04:16:52;;;;;;;9.27;4.13;;;;;;;;;;4925278;29;20043;-89
2023/01/16 04:19:19;;;;;;;7.55;4.72;;;;;;;;;;4941573;29;20090;-91
2023/01/16 04:21:47;;;;;;;7.32;3.88;;;;;;;;;;4941723;29;20047;-93
2023/01/16 04:24:14;;;;;;;5.47;4.00;;;;;;;;;;4925943;28;20089;-94
2023/01/16 04:26:40;;;;;;;9.10;4.13;;;;;;;;;;4940763;28;20047;-90
2023/01/16 04:29:06;;;;;;;6.80;4.03;;;;;;;;;;4940684;28;20082;-90
2023/01/16 04:31:32;;;;;;;9.35;5.03;;;;;;;;;;4940701;28;20047;-89
2023/01/16 04:33:58;;;;;;;11.57;5.60;;;;;;;;;;4925308;29;20043;-95
2023/01/16 04:36:24;;;;;;;8.13;4.30;;;;;;;;;;4926180;29;20488;-96
2023/01/16 04:38:50;;;;;;;7.65;4.38;;;;;;;;;;4942264;29;20142;-96
2023/01/16 04:41:35;;;;;;;7.45;5.35;;;;;;;;;;4941873;29;20047;-96
2023/01/16 04:44:02;;;;;;;7.38;4.88;;;;;;;;;;4926120;28;20093;-95
2023/01/16 04:46:28;;;;;;;7.47;5.30;;;;;;;;;;4925738;28;20131;-96
2023/01/16 04:48:54;;;;;;;10.65;5.25;;;;;;;;;;4941129;28;20523;-90
2023/01/16 04:51:20;;;;;;;12.65;5.32;;;;;;;;;;4941120;28;20396;-92
2023/01/16 04:53:46;;;;;;;7.90;5.47;;;;;;;;;;4924719;29;20055;-91
2023/01/16 04:56:12;;;;;;;10.00;5.72;;;;;;;;;;4924695;28;20130;-91
2023/01/16 04:58:38;;;;;;;9.73;5.32;;;;;;;;;;4940175;29;20047;-89
2023/01/16 05:01:04;;;;;;;9.68;5.68;;;;;;;;;;4940412;28;20047;-89
2023/01/16 05:03:30;;;;;;;7.82;5.63;;;;;;;;;;4924166;29;20055;-89
2023/01/16 05:05:57;;;;;;;12.88;6.22;;;;;;;;;;4924597;28;20054;-90
2023/01/16 05:08:27;;;;;;;12.65;6.32;;;;;;;;;;4924728;29;20035;-90
2023/01/16 05:10:53;;;;;;;14.73;6.63;;;;;;;;;;4940139;29;20055;-90
2023/01/16 05:13:19;;;;;;;12.07;6.32;;;;;;;;;;4923994;29;20047;-90
2023/01/16 05:15:46;;;;;;;13.73;6.88;;;;;;;;;;4924661;28;20130;-93
2023/01/16 05:18:12;;;;;;;10.75;7.10;;;;;;;;;;4941054;29;20480;-92
2023/01/16 05:20:38;;;;;;;11.68;6.30;;;;;;;;;;4925014;28;20047;-92
2023/01/16 05:23:05;;;;;;;9.10;6.05;;;;;;;;;;4925096;28;20122;-93
2023/01/16 05:25:31;;;;;;;16.92;6.70;;;;;;;;;;4940825;28;20086;-93
2023/01/16 05:27:57;;;;;;;7.63;5.65;;;;;;;;;;4940484;28;20039;-92
2023/01/16 05:30:23;;;;;;;12.40;6.05;;;;;;;;;;4924582;28;20047;-93
2023/01/16 05:32:49;;;;;;;12.80;7.00;;;;;;;;;;4924452;28;20043;-92
2023/01/16 05:35:15;;;;;;;12.10;6.60;;;;;;;;;;4924867;28;20062;-93
2023/01/16 05:37:42;;;;;;;11.15;6.10;;;;;;;;;;4924407;28;20098;-93
2023/01/16 05:40:09;;;;;;;10.77;6.97;;;;;;;;;;4924525;29;20047;-94
2023/01/16 05:42:35;;;;;;;10.90;7.13;;;;;;;;;;4924831;29;20054;-94
2023/01/16 05:45:01;;;;;;;12.10;7.00;;;;;;;;;;4924583;29;20090;-94
2023/01/16 05:47:27;;;;;;;10.93;7.03;;;;;;;;;;4924415;29;20058;-94
2023/01/16 05:49:53;;;;;;;11.02;6.55;;;;;;;;;;4923540;29;20055;-91
2023/01/16 05:52:19;;;;;;;13.23;7.40;;;;;;;;;;4923487;28;20043;-91
2023/01/16 05:54:45;;;;;;;13.95;7.65;;;;;;;;;;4939791;29;20043;-90
2023/01/16 05:57:12;;;;;;;14.43;6.43;;;;;;;;;;4939613;29;20050;-89
2023/01/16 05:59:41;;;;;;;11.10;7.20;;;;;;;;;;4924180;28;20050;-90
2023/01/16 06:02:07;;;;;;;12.00;7.00;;;;;;;;;;4939626;29;20054;-89
2023/01/16 06:04:33;;;;;;;13.52;7.63;;;;;;;;;;4940090;28;20153;-90
2023/01/16 06:06:59;;;;;;;12.60;8.20;;;;;;;;;;4939781;29;20154;-91
2023/01/16 06:09:25;;;;;;;13.77;7.60;;;;;;;;;;4924633;28;20047;-91
2023/01/16 06:11:57;;;;;;;15.60;7.90;;;;;;;;;;4923945;28;20043;-91
2023/01/16 06:14:23;;;;;;;14.98;8.02;;;;;;;;;;4940238;28;20082;-91
2023/01/16 06:16:49;;;;;;;12.65;7.53;;;;;;;;;;4940586;29;20048;-91
2023/01/16 06:19:19;;;;;;;13.07;7.68;;;;;;;;;;4924405;29;20047;-91
2023/01/16 06:21:45;;;;;;;13.55;7.38;;;;;;;;;;4924735;28;20137;-91
2023/01/16 06:24:11;;;;;;;9.95;7.60;;;;;;;;;;4924184;28;20102;-90
2023/01/16 06:26:37;;;;;;;11.25;7.35;;;;;;;;;;4925857;28;20043;-90
2023/01/16 06:29:03;;;;;;;17.63;8.27;;;;;;;;;;4924727;28;20047;-91
2023/01/16 06:31:30;;;;;;;20.30;8.20;;;;;;;;;;4923761;29;20451;-90
2023/01/16 06:33:56;;;;;;;14.07;7.65;;;;;;;;;;4922921;29;20098;-90
2023/01/16 06:36:22;;;;;;;13.35;8.10;;;;;;;;;;4939152;28;20126;-89
2023/01/16 06:38:48;;;;;;;13.63;7.40;;;;;;;;;;4938685;28;20103;-90
2023/01/16 06:41:14;;;;;;;23.00;7.63;;;;;;;;;;4938644;28;20055;-90
2023/01/16 06:43:40;;;;;;;12.27;8.65;;;;;;;;;;4922592;28;20138;-90
2023/01/16 06:46:07;;;;;;;16.45;7.82;;;;;;;;;;4923212;29;20051;-90
2023/01/16 06:48:34;;;;;;;20.38;8.95;;;;;;;;;;4938645;29;20436;-89
2023/01/16 06:51:00;;;;;;;14.57;7.45;;;;;;;;;;4922808;28;20427;-89
2023/01/16 06:53:26;;;;;;;10.80;7.22;;;;;;;;;;4938319;28;20062;-90
2023/01/16 06:55:52;;;;;;;21.27;8.07;;;;;;;;;;4938359;28;20126;-91
2023/01/16 06:58:18;;;;;;;11.10;7.38;;;;;;;;;;4938751;29;20119;-92
2023/01/16 07:00:44;;;;;;;11.65;6.93;;;;;;;;;;4923126;29;20050;-91
2023/01/16 07:03:12;;;;;;;11.63;8.27;;;;;;;;;;4922686;29;20114;-92
2023/01/16 07:05:38;;;;;;;9.95;7.38;;;;;;;;;;4938136;28;20043;-91
2023/01/16 07:08:05;;;;;;;14.15;7.85;;;;;;;;;;4922673;28;20051;-90
2023/01/16 07:10:31;;;;;;;16.33;7.75;;;;;;;;;;4938526;28;20138;-90
2023/01/16 07:12:57;;;;;;;12.80;7.15;;;;;;;;;;4922589;28;20093;-89
2023/01/16 07:23:45;;;;;;;12.07;8.10;;;;;;;;;;4937875;29;20054;-89
2023/01/16 07:26:12;;;;;;;13.45;7.78;;;;;;;;;;4922205;28;20047;-89
2023/01/16 07:28:39;;;;;;;18.33;7.50;;;;;;;;;;4922321;29;20043;-89
2023/01/16 07:31:06;;;;;;;13.27;8.27;;;;;;;;;;4921955;28;20054;-90
2023/01/16 07:33:32;;;;;;;13.68;7.88;;;;;;;;;;4921972;28;20055;-91
2023/01/16 07:35:58;;;;;;;14.93;8.95;;;;;;;;;;4938435;29;20046;-91
2023/01/16 07:38:24;;;;;;;15.13;7.75;;;;;;;;;;4926078;29;20051;-91
2023/01/16 07:40:50;;;;;;;16.35;7.43;;;;;;;;;;4925789;28;20078;-91
2023/01/16 07:43:16;;;;;;;13.02;8.20;;;;;;;;;;4926462;28;20069;-91
2023/01/16 07:45:51;;;;;;;16.42;7.10;;;;;;;;;;4941777;28;20051;-90
2023/01/16 07:48:24;;;;;;;14.00;7.72;;;;;;;;;;4925655;28;20039;-90
2023/01/16 07:50:51;;;;;;;14.65;8.20;;;;;;;;;;4941311;29;20142;-89
2023/01/16 07:53:21;;;;;;;14.00;6.97;;;;;;;;;;4925306;28;20130;-89
2023/01/16 07:55:48;;;;;;;12.13;7.05;;;;;;;;;;4925896;29;20130;-91
2023/01/16 07:58:14;;;;;;;16.58;9.30;;;;;;;;;;4941571;28;20051;-90
2023/01/16 08:00:44;;;;;;;11.40;7.22;;;;;;;;;;4941974;29;20110;-90
2023/01/16 08:03:10;;;;;;;14.82;8.13;;;;;;;;;;4925653;29;20043;-90
2023/01/16 08:05:37;;;;;;;16.50;7.07;;;;;;;;;;4925299;28;20051;-89
2023/01/16 08:08:03;;;;;;;10.75;6.72;;;;;;;;;;4925407;28;20090;-92
2023/01/16 08:10:29;;;;;;;8.45;5.97;;;;;;;;;;4926150;29;20087;-90
2023/01/16 08:12:55;;;;;;;10.07;6.07;;;;;;;;;;4941358;29;20043;-94
2023/01/16 08:15:21;;;;;;;10.00;6.30;;;;;;;;;;4925743;29;20098;-94
2023/01/16 08:17:47;;;;;;;16.85;7.07;;;;;;;;;;4925968;28;20134;-90
2023/01/16 08:20:13;;;;;;;8.10;5.95;;;;;;;;;;4925495;29;20098;-94
2023/01/16 08:22:44;;;;;;;11.40;6.72;;;;;;;;;;4941343;28;20039;-90
2023/01/16 08:25:10;;;;;;;14.32;6.20;;;;;;;;;;4940940;29;20082;-92
2023/01/16 08:27:36;;;;;;;8.35;5.85;;;;;;;;;;4941031;29;20054;-92
2023/01/16 08:30:02;;;;;;;9.43;5.32;;;;;;;;;;4940700;28;20057;-90
2023/01/16 08:32:28;;;;;;;10.13;5.75;;;;;;;;;;4940775;28;20046;-90
2023/01/16 08:34:54;;;;;;;8.48;4.90;;;;;;;;;;4925095;28;20047;-96
2023/01/16 08:37:20;;;;;;;10.73;5.53;;;;;;;;;;4941171;28;20047;-90
2023/01/16 08:39:47;;;;;;;9.20;5.97;;;;;;;;;;4940740;29;20512;-90
2023/01/16 08:53:22;;;;;;;11.30;5.40;;;;;;;;;;4940795;28;20082;-89
2023/01/16 08:55:49;;;;;;;12.32;5.68;;;;;;;;;;4940297;28;20039;-90
2023/01/16 08:58:15;;;;;;;10.43;5.18;;;;;;;;;;4924653;28;20071;-90
2023/01/16 09:00:41;;;;;;;9.50;4.95;;;;;;;;;;4940374;28;20054;-91
2023/01/16 09:03:07;;;;;;;12.80;5.90;;;;;;;;;;4924207;29;20408;-90
2023/01/16 09:05:34;;;;;;;9.35;5.22;;;;;;;;;;4940346;29;20058;-90
2023/01/16 09:08:00;;;;;;;11.43;6.60;;;;;;;;;;4940342;29;20050;-90
2023/01/16 09:10:27;;;;;;;10.07;5.80;;;;;;;;;;4940415;29;20051;-90
2023/01/16 09:15:38;;;;;;;12.00;4.93;;;;;;;;;;4940234;28;20511;-90
2023/01/16 09:18:04;;;;;;;13.52;6.20;;;;;;;;;;4924567;28;20408;-89
2023/01/16 09:20:30;;;;;;;11.82;6.05;;;;;;;;;;4940421;28;20539;-89
2023/01/16 09:22:57;;;;;;;8.70;5.53;;;;;;;;;;4940224;28;20523;-89
2023/01/16 09:25:23;;;;;;;10.05;5.45;;;;;;;;;;4924204;29;20043;-91
2023/01/16 09:27:49;;;;;;;13.32;6.13;;;;;;;;;;4924085;29;20047;-90
2023/01/16 09:30:15;;;;;;;8.73;5.13;;;;;;;;;;4924100;28;20165;-90
2023/01/16 09:32:43;;;;;;;9.45;5.85;;;;;;;;;;4923821;29;20480;-90
2023/01/16 09:35:10;;;;;;;16.25;6.03;;;;;;;;;;4924046;28;20051;-90
2023/01/16 09:37:36;;;;;;;7.10;4.65;;;;;;;;;;4939965;28;20102;-90
2023/01/16 09:40:02;;;;;;;9.90;4.70;;;;;;;;;;4939975;29;20078;-90
2023/01/16 09:45:17;;;;;;;12.70;5.13;;;;;;;;;;4939829;29;20047;-90
2023/01/16 09:47:47;;;;;;;7.18;4.15;;;;;;;;;;4924138;29;20047;-89
2023/01/16 09:50:23;;;;;;;8.27;4.40;;;;;;;;;;4924284;28;20083;-94
2023/01/16 09:58:37;;;;;;;9.65;5.25;;;;;;;;;;4942023;28;20092;-93
2023/01/16 10:01:06;;;;;;;4.57;3.97;;;;;;;;;;4944081;28;20400;-91
2023/01/16 10:03:33;;;;;;;7.68;3.70;;;;;;;;;;4927593;28;20059;-90
2023/01/16 10:06:15;;;;;;;7.82;4.40;;;;;;;;;;4927846;29;20051;-93
2023/01/16 10:08:44;;;;;;;8.48;4.13;;;;;;;;;;4927078;28;20101;-91
2023/01/16 10:11:29;;;;;;;10.15;4.82;;;;;;;;;;4924894;28;20078;-90
2023/01/16 10:14:07;;;;;;;9.90;4.35;;;;;;;;;;4924706;28;20078;-90
2023/01/16 10:17:07;;;;;;;7.43;4.22;;;4.20;99.90;;;;;;4925001;29;20484;-91
2023/01/16 10:19:53;;;;;;;7.95;3.88;;;;;;;;;;4940733;28;20047;-91
2023/01/16 10:22:28;;;;;;;6.60;4.68;;;;;;;;;;4924281;28;20051;-91
2023/01/16 10:25:01;;;;;;;9.73;4.10;;;;;;;;;;4940047;29;20051;-91
2023/01/16 10:27:30;;;;;;;7.95;3.83;;;;;;;;;;4940132;28;20085;-90
2023/01/16 10:30:05;;;;;;;9.82;4.57;;;;;;;;;;4924238;28;20043;-91
2023/01/16 10:32:36;;;;;;;5.45;3.25;;;;;;;;;;4924885;29;20043;-91
2023/01/16 10:35:13;;;;;;;4.85;3.67;;;;;;;;;;4925142;28;20369;-90
2023/01/16 10:37:42;;;;;;;5.55;3.70;;;;;;;;;;4923575;29;20043;-90
2023/01/16 10:40:12;;;;;;;7.10;3.08;;;;;;;;;;4924168;29;20369;-90
2023/01/16 10:50:58;;;;;;;4.18;2.95;;;;;;;;;;4939829;28;20408;-90
2023/01/16 10:53:24;;;;;;;7.35;3.17;;;;;;;;;;4923608;28;20050;-90
2023/01/16 10:55:52;;;;;;;4.72;3.05;;;;;;;;;;4923784;29;20056;-90
2023/01/16 10:58:27;;;;;;;3.95;2.78;;;;;;;;;;4922882;28;20059;-90
2023/01/16 11:01:01;;;;;;;3.70;2.38;;;;;;;;;;4923936;28;20070;-91
2023/01/16 11:03:27;;;;;;;3.47;2.50;;;;;;;;;;4923952;29;20057;-90
2023/01/16 11:06:13;;;;;;;5.20;2.40;;;;;;;;;;4924027;28;20134;-91
2023/01/16 11:08:41;;;;;;;3.03;2.10;;;;;;;;;;4923231;28;20047;-91
2023/01/16 11:18:27;;;;;;;5.57;2.22;;;;;;;;;;4924030;29;20047;-91
2023/01/16 11:19:59;;;;;;;1.50;1.40;;;;;;;;;;4939395;28;20043;-92
2023/01/16 11:22:25;;;;;;;1.80;1.70;;;;;;;;;;4923663;28;20134;-91
2023/01/16 11:24:58;;;;;;;2.55;1.70;;;;;;;;;;4923510;28;20497;-91
2023/01/16 11:27:27;;;;;;;2.45;1.60;;;;;;;;;;4939551;28;20519;-90
2023/01/16 11:29:54;;;;;;;1.38;1.27;;;;;;;;;;4922959;28;20412;-91
2023/01/16 11:32:24;;;;;;;3.13;1.90;;;;;;;;;;4924390;28;20075;-93
2023/01/16 11:34:54;;;;;;;2.05;1.50;;;;;;;;;;4938968;28;20047;-94
2023/01/16 11:37:20;;;;;;;3.08;1.75;;;;;;;;;;4923787;28;20512;-90
2023/01/16 11:39:51;;;;;;;3.03;1.95;;;;;;;;;;4923240;28;20134;-90
2023/01/16 11:48:24;;;;;;;2.42;2.22;;;;;;;;;;4939679;28;20135;-92
2023/01/16 11:50:57;;;;;;;1.92;1.73;;;;;;;;;;4923437;29;20416;-94
2023/01/16 11:53:29;;;;;;;1.48;1.38;;;;;;;;;;4924263;28;20047;-90
2023/01/16 11:56:11;;;;;;;4.72;1.38;;;;;;;;;;4923080;28;20488;-90
2023/01/16 11:59:06;;;;;;;1.55;1.30;;;;;;;;;;4922889;28;20039;-91
2023/01/16 12:02:15;;;;;;;1.55;1.45;;;;;;;;;;4923159;28;20054;-92
2023/01/16 12:04:25;;;;;;;1.85;1.73;;;;;;;;;;4938868;29;20081;-93
2023/01/16 12:06:54;;;;;;;2.83;1.50;;;;;;;;;;4923487;28;20058;-93
2023/01/16 12:09:56;;;;;;;1.63;1.52;;;;;;;;;;4923426;29;20051;-94
2023/01/16 12:15:35;;;;;;;1.95;1.70;;;;;;;;;;4939184;28;20083;-90
2023/01/16 12:18:04;;;;;;;3.88;1.75;;;;;;;;;;4923926;28;20074;-93
2023/01/16 12:20:40;;;;;;;2.67;1.92;;;;;;;;;;4923718;29;20134;-91
2023/01/16 12:23:10;;;;;;;1.92;1.58;;;;;;;;;;4925581;28;20496;-90
2023/01/16 12:25:55;;;;;;;1.80;1.65;;;;;;;;;;4926633;28;20043;-90
2023/01/16 12:28:33;;;;;;;1.70;1.60;;;;;;;;;;4926705;29;20382;-91
2023/01/16 12:31:31;;;;;;;2.20;1.50;;;;;;;;;;4927515;28;20047;-91
2023/01/16 12:33:57;;;;;;;5.60;1.35;;;;;;;;;;4943085;28;20122;-93
2023/01/16 12:36:30;;;;;;;1.77;1.50;;;;;;;;;;4927201;28;20043;-90
2023/01/16 12:39:08;;;;;;;3.15;2.10;;;;;;;;;;4927218;28;20500;-90
2023/01/16 12:44:33;;;;;;;1.60;1.50;;;;;;;;;;4943552;28;20070;-91
2023/01/16 12:47:23;;;;;;;1.98;1.63;;;;;;;;;;4927339;29;20428;-94
2023/01/16 12:50:25;;;;;;;3.67;1.70;;;;;;;;;;4919237;28;20055;-91
2023/01/16 12:52:54;;;;;;;2.05;1.80;;;;;;;;;;4868955;29;20045;-92
2023/01/16 12:55:28;;;;;;;2.20;2.00;;;;;;;;;;4931831;28;20483;-90
2023/01/16 12:58:05;;;;;;;1.85;1.55;;;;;;;;;;4926809;28;20058;-94
2023/01/16 13:00:34;;;;;;;1.90;1.80;;;;;;;;;;4926517;28;20043;-92
2023/01/16 13:03:20;;;;;;;2.35;1.60;;;;;;;;;;4942837;28;20046;-94
2023/01/16 13:05:54;;;;;;;2.80;1.60;;;;;;;;;;4927280;29;20526;-93
2023/01/16 13:08:29;;;;;;;2.35;2.00;;;;;;;;;;4925657;28;20051;-91
2023/01/16 13:13:49;;;;;;;4.25;1.90;;;;;;;;;;4941622;29;20047;-91
2023/01/16 13:16:30;;;;;;;2.80;1.92;;;;;;;;;;4926216;28;20051;-94
2023/01/16 13:19:17;;;;;;;2.00;1.90;;;;;;;;;;4926334;28;20047;-95
2023/01/16 13:22:05;;;;;;;2.35;2.15;;;;;;;;;;4926946;28;20086;-93
2023/01/16 13:24:36;;;;;;;5.53;2.45;;;;;;;;;;4926890;28;20043;-91
2023/01/16 13:27:04;;;;;;;2.30;2.10;;;;;;;;;;4925440;29;20078;-90
2023/01/16 13:29:47;;;;;;;3.85;2.20;;;;;;;;;;4925219;28;20549;-96
2023/01/16 13:32:31;;;;;;;4.50;2.17;;;;;;;;;;4940679;28;20492;-92
2023/01/16 13:35:04;;;;;;;2.33;2.13;;;;;;;;;;4925572;28;20047;-93
2023/01/16 13:37:47;;;;;;;3.45;2.03;;;;;;;;;;4925302;28;20044;-91
2023/01/16 13:40:27;;;;;;;2.50;2.30;;;;;;;;;;4925203;28;20051;-90
2023/01/16 13:45:47;;;;;;;2.40;2.13;;;;;;;;;;4940608;28;20059;-90
2023/01/16 13:45:49;;;;;;;5.75;2.10;;;;;;;;;;4939919;29;20051;-91
2023/01/16 13:48:20;;;;;;;2.15;2.00;;;;;;;;;;4956852;28;20134;-94
2023/01/16 13:50:51;;;;;;;6.57;2.38;;;;;;;;;;4924845;28;20086;-93
2023/01/16 13:53:17;;;;;;;1.92;1.83;;;;;;;;;;4925136;28;20050;-90
2023/01/16 13:55:45;;;;;;;2.47;2.20;;;;;;;;;;4925308;28;20519;-91
2023/01/16 13:58:17;;;;;;;5.00;1.98;;;;;;;;;;4940802;28;20059;-91
2023/01/16 14:00:44;;;;;;;4.40;2.00;;;;;;;;;;4924653;28;20050;-92
2023/01/16 14:03:27;;;;;;;2.47;2.05;;;;;;;;;;4924419;28;20373;-91
2023/01/16 14:05:55;;;;;;;3.40;2.33;;;;;;;;;;4924192;28;20062;-92
2023/01/16 14:11:37;;;;;;;4.60;2.58;;;;;;;;;;4940255;28;20047;-92
2023/01/16 14:17:18;;;;;;;2.53;2.33;;;;;;;;;;4940507;28;20051;-91
2023/01/16 14:19:53;;;;;;;3.35;3.08;;;;;;;;;;4924229;29;20103;-92
2023/01/16 14:24:48;;;;;;;2.65;2.45;;;;;;;;;;4940743;28;20496;-92
2023/01/16 14:27:19;;;;;;;3.38;3.08;;;;;;;;;;4925005;28;20086;-94
2023/01/16 14:29:46;;;;;;;2.83;2.15;;;;;;;;;;4924050;29;20047;-91
2023/01/16 14:32:12;;;;;;;2.55;2.35;;;;;;;;;;4923737;28;20511;-92
2023/01/16 14:34:44;;;;;;;5.00;2.35;;;;;;;;;;4923838;28;20058;-91
2023/01/16 14:37:16;;;;;;;2.90;2.65;;;;;;;;;;4924850;28;20047;-93
2023/01/16 14:39:57;;;;;;;2.60;2.40;;;;;;;;;;4924197;28;20484;-91
2023/01/16 14:56:42;;;;;;;2.88;2.67;;;;;;;;;;4939286;28;20051;-93
2023/01/16 14:59:13;;;;;;;2.65;2.45;;;;;;;;;;4923722;28;20047;-94
2023/01/16 15:04:49;;;;;;;3.40;3.10;;;;;;;;;;4939603;29;20503;-94
2023/01/16 15:07:16;;;;;;;2.90;2.53;;;;;;;;;;4922774;29;20053;-92
2023/01/16 15:09:46;;;;;;;2.75;2.55;;;;;;;;;;4956433;28;20039;-92
2023/01/16 15:12:14;;;;;;;6.18;2.80;;;;;;;;;;4938708;28;20094;-94
2023/01/16 15:14:57;;;;;;;3.30;2.97;;;;;;;;;;4923380;28;20130;-92
2023/01/16 15:23:17;;;;;;;4.18;2.85;;;;;;;;;;4938452;28;20058;-90
2023/01/16 15:26:11;;;;;;;2.90;2.60;;;;;;;;;;4923668;28;20510;-96
2023/01/16 15:28:41;;;;;;;3.33;2.80;;;;;;;;;;4898367;28;20074;-93
2023/01/16 15:31:18;;;;;;;2.67;2.30;;;;;;;;;;4939822;29;20062;-92
2023/01/16 15:33:50;;;;;;;2.90;2.70;;;;;;;;;;4923801;28;20377;-92
2023/01/16 15:36:36;;;;;;;2.70;2.50;;;;;;;;;;4923874;28;20047;-95
2023/01/16 15:39:17;;;;;;;3.97;3.00;;;;;;;;;;4924017;28;20457;-93
2023/01/16 15:47:37;;;;;;;2.72;2.42;;;;;;;;;;4939144;28;20527;-92
2023/01/16 15:50:18;;;;;;;2.72;2.53;;;;;;;;;;4923277;29;20050;-94
2023/01/16 15:52:44;;;;;;;5.93;2.85;;;;;;;;;;4924072;28;20058;-93
2023/01/16 15:55:25;;;;;;;5.13;3.03;;;;;;;;;;4923214;28;20051;-93
2023/01/16 15:57:56;;;;;;;4.38;2.45;;;;;;;;;;4925222;28;20131;-91
2023/01/16 16:00:26;;;;;;;3.72;2.78;;;;;;;;;;4942597;28;20039;-93
2023/01/16 16:02:56;;;;;;;2.60;2.40;;;;;;;;;;4927188;28;20492;-92
2023/01/16 16:05:23;;;;;;;4.47;2.95;;;;;;;;;;4926902;29;20460;-95
2023/01/16 16:07:50;;;;;;;8.75;5.20;;;;;;;;;;4959609;28;20416;-94
2023/01/16 16:11:51;;;;;;;5.70;3.65;;;;;;;;;;4926964;28;20389;-95
2023/01/16 16:13:06;;;;;;;9.27;3.53;;;;;;;;;;4942949;29;20051;-94
2023/01/16 16:18:30;;;;;;;4.55;3.50;;;;;;;;;;4892265;28;20072;-95
2023/01/16 16:21:07;;;;;;;3.03;2.75;;;;;;;;;;4942969;29;20114;-96
2023/01/16 16:23:34;;;;;;;4.35;3.95;;;;;;;;;;4926888;28;20047;-94
2023/01/16 16:26:02;;;;;;;8.80;5.43;;;;;;;;;;4942935;28;20051;-94
2023/01/16 16:28:38;;;;;;;6.90;4.43;;;;;;;;;;4926582;28;20054;-93
2023/01/16 16:31:15;;;;;;;4.43;4.03;;;;;;;;;;4927075;29;20435;-94
2023/01/16 16:33:43;;;;;;;5.35;3.83;;;;;;;;;;4927616;28;20349;-94
2023/01/16 16:36:14;;;;;;;4.60;3.88;;;;;;;;;;4926313;28;20047;-94
2023/01/16 16:38:45;;;;;;;6.82;4.00;;;;;;;;;;4942307;28;20066;-94
2023/01/16 16:42:25;;;;;;;4.95;4.20;;;4.80;99.90;;;;;;4926263;29;20058;-93